Hauptseite
METAR-TAF:

METAR-TAF

Flughäfen :

Militärflugplatz Deelen

Arnheim, Niederlande

Breite: 52-04N, Länge: 005-53E, Höhe: 48 m

Beobachtung

Neuester Wetterbericht von vor 21 Minuten, um 05:25 UTC
Wind 3 kt aus Ost/Südost, variierte zwischen Ost und Süd
Temperatur 1°C
Luftfeuchtigkeit 100%
Luftdruck 1011 hPa
Sichtweite: 5000 m
Geschlossene Wolkendecke in der Höhe von 32000 ft
feuchter Dunst

METAR: EHDL 170525Z AUTO 12003KT 090V170 5000 BR OVC320 01/01 Q1011 WHT

Zeit: 06:46 (05:46 UTC)


TAF: fehlend

Wetterbeobachtungen und Prognosen von mehr als 4000 Flughäfen (METAR und TAF Bericht).

Die verfügbaren Stationen werden durch gelbe und rote Markierungen auf der Karte dargestellt.

Führen Sie die Maus auf sie, um den Namen der Station zu sehen.

Darauf klicken, um die Beobachtung von Wetterbeobachtungen und Prognosen zu sehen.

Um die Karte zu ändern : klicken Sie auf den grünen Tasten mit einem schwarzen Kreuz Zum Vergrößern, auf den grünen Button mit einem Gedankenstrich zu verkleinern, oder auf die grünen Pfeile für benachbarte Karten.


METAR-TAF: